Putnam, TX (76469)

10:51 PM CDT on September 18, 2014 (GMT -0500)
Rawhide Six Shooter 1.5 miles west of Cisco | Change Station
CLOSE
Current Station
Personal Weather Station
Location: Cisco, TX
Elevation: 1657 ft
Nearby Weather Stations

Elev 1657 ft 32.39 °N, 99.01 °W | Updated 7 minutes ago

Overcast
Overcast
72.5 °F
Feels Like 72.5 °F
N
2.0
Wind Variable Wind from SE
Gusts 5.0 mph

Today
High -- | Low -- °F
--% Chance of Precip.
Yesterday
High -- | Low -- °F
Precip. -- in
7:22 AM 7:38 PM
Waning Crescent, 22% visible
Pressure 29.97 in
Visibility 10.0 miles
Clouds Overcast 1100 ft
Dew Point 71 °F
Humidity 96%
Rainfall 0.27 in
Snow Depth Not available.
UV 0 out of 12
Pollen 8.20 out of 12
Air Quality Not available.
Flu Activity Not available.
SPECI KABI 190330Z 09003KT 10SM OVC011 23/22 A2997 RMK AO2 T02330217

More Conditions Fewer Conditions

Pressure 29.97 in
Visibility 10.0 miles
Clouds Overcast 1100 ft
Dew Point 71 °F
Humidity 96%
Rainfall 0.27 in
Snow Depth Not available.
UV 0 out of 12
Pollen 8.20 out of 12
Air Quality Not available.
Flu Activity Not available.
SPECI KABI 190330Z 09003KT 10SM OVC011 23/22 A2997 RMK AO2 T02330217

More Conditions Fewer Conditions

Nowcast | as of 9:23 PM CDT on September 18, 2014

Several areas of light to moderate rainfall will continue to move east across west central Texas through midnight. Most of the rainfall will remain south of Interstate 20. Hourly rainfall amounts will generally be less than a quarter of an inch. Isolated thunderstorms may produce brief heavy rainfall and rainfall amounts up to an inch.

×

10-Day Weather Forecast

Almanac

Astronomy

Sep. 18, 2014 Rise Set
Actual Time 7:22 AM CDT 7:38 PM CDT
Civil Twilight 6:57 AM CDT 8:03 PM CDT
Nautical Twilight 6:29 AM CDT 8:31 PM CDT
Astronomical Twilight 6:00 AM CDT 9:00 PM CDT
Moon 2:29 AM CDT (9/18) 4:18 PM CDT (9/18)
Length of Visible Light 13h 05m
Length of Day
12h 16m
Tomorrow will be 1m 58s shorter.
Waning Crescent, 22% of the Moon is Illuminated
Today
Waning Crescent
Sep 24
New
Oct 1
First Quarter
Oct 8
Full
Oct 15
Last Quarter

Today's Extremes

State Highs State Lows

Community

WunderPhotos

Upload Photos

1,754,553 photos uploaded!

Nearby

Snow Depth

Station Depth Elevation
No new snow has been reported.

Earthquake Activity

City Distance Mag. Time & Date
No recent earthquake activity has been reported nearby.
Minimum magnitude displayed is 2.5.

Coastal Water Temperatures

Place Temperature
No Stations Reporting

Nearby Weather Stations